Time;durP1;ratioP1;P1;durP2;ratioP2;P2;SDS_P1;SDS_P2;PMS_P1;PMS_P2;Temp;Humidity;BMP_temperature;BMP_pressure;BME280_temperature;BME280_humidity;BME280_pressure;Samples;Min_cycle;Max_cycle;Signal;HPM_P1;HPM_P2
2023/04/27 00:00:24;;;;;;;5.32;3.22;;;;;;;23.01;50.08;98276.66;4834239;29;20512;-63
2023/04/27 00:02:54;;;;;;;7.00;3.72;;;;;;;22.99;50.33;98298.53;4833999;29;20058;-65
2023/04/27 00:05:25;;;;;;;12.05;3.45;;;;;;;23.00;50.81;98316.38;4818015;29;20098;-65
2023/04/27 00:07:55;;;;;;;5.47;3.60;;;;;;;23.00;50.96;98312.84;4834340;29;20056;-62
2023/04/27 00:10:24;;;;;;;5.35;3.78;;;;;;;23.00;50.32;98310.97;4833968;29;20849;-63
2023/04/27 00:12:54;;;;;;;5.97;3.50;;;;;;;23.00;49.99;98294.75;4834506;29;20061;-63
2023/04/27 00:15:23;;;;;;;5.45;3.30;;;;;;;23.05;49.47;98297.41;4833599;29;20060;-65
2023/04/27 00:17:52;;;;;;;7.60;4.75;;;;;;;23.05;47.61;98300.13;4818287;29;20065;-62
2023/04/27 00:20:22;;;;;;;10.20;5.95;;;;;;;23.14;47.37;98298.41;4832386;29;20046;-63
2023/04/27 00:22:52;;;;;;;12.27;5.25;;;;;;;23.11;48.89;98298.16;4833471;29;20769;-63
2023/04/27 00:25:21;;;;;;;11.77;5.20;;;;;;;23.10;49.40;98299.28;4830672;29;20141;-63
2023/04/27 00:27:51;;;;;;;8.10;5.00;;;;;;;23.08;49.43;98288.75;4833451;29;20077;-62
2023/04/27 00:30:20;;;;;;;12.82;5.88;;;;;;;23.07;48.43;98287.13;4816309;29;20038;-63
2023/04/27 00:32:49;;;;;;;8.55;5.15;;;;;;;23.09;49.07;98271.44;4832895;29;20706;-64
2023/04/27 00:35:19;;;;;;;16.58;4.88;;;;;;;23.08;48.91;98260.91;4825714;29;20045;-62
2023/04/27 00:37:48;;;;;;;17.23;4.95;;;;;;;23.09;49.22;98262.53;4833791;29;20152;-64
2023/04/27 00:40:20;;;;;;;9.65;4.90;;;;;;;23.06;49.42;98258.47;4833875;29;20130;-64
2023/04/27 00:42:50;;;;;;;9.85;4.45;;;;;;;23.05;49.46;98256.09;4832197;29;20073;-61
2023/04/27 00:45:19;;;;;;;8.68;4.18;;;;;;;23.10;49.14;98250.66;4831398;29;20046;-64
2023/04/27 00:47:49;;;;;;;8.43;3.75;;;;;;;23.10;48.95;98273.03;4832132;29;20062;-63
2023/04/27 00:50:28;;;;;;;9.82;4.00;;;;;;;23.13;48.08;98279.78;4831026;29;20053;-61
2023/04/27 00:52:58;;;;;;;9.48;4.95;;;;;;;23.13;48.67;98291.41;4832463;29;20117;-64
2023/04/27 00:55:27;;;;;;;7.90;4.03;;;;;;;23.13;48.37;98287.88;4817229;29;20076;-64
2023/04/27 00:57:57;;;;;;;11.35;5.75;;;;;;;23.17;48.80;98300.53;4832916;29;20057;-61
2023/04/27 01:00:27;;;;;;;7.30;3.90;;;;;;;23.20;48.01;98307.28;4817468;29;20093;-61
2023/04/27 01:02:56;;;;;;;8.38;4.97;;;;;;;23.23;48.10;98312.91;4800585;29;20130;-63
2023/04/27 01:05:26;;;;;;;6.85;4.22;;;;;;;23.24;48.67;98313.72;4801596;29;20045;-63
2023/04/27 01:07:57;;;;;;;9.85;4.57;;;;;;;23.23;48.72;98304.81;4833150;29;20462;-62
2023/04/27 01:10:27;;;;;;;6.10;3.95;;;;;;;23.25;48.89;98310.75;4818411;29;20053;-63
2023/04/27 01:12:56;;;;;;;10.60;3.58;;;;;;;23.25;48.83;98316.16;4837028;29;20050;-62
2023/04/27 01:15:26;;;;;;;10.38;3.92;;;;;;;23.25;48.71;98315.34;4832210;29;20042;-63
2023/04/27 01:18:00;;;;;;;11.90;3.72;;;;;;;23.25;48.69;98310.75;4817530;29;20154;-61
2023/04/27 01:21:32;;;;;;;14.05;4.43;;;;;;;23.31;48.76;98314.22;4817147;29;20468;-62
2023/04/27 01:24:30;;;;;;;13.43;4.40;;;;;;;23.39;48.15;98316.28;4816268;29;20050;-63
2023/04/27 01:27:00;;;;;;;7.82;4.10;;;;;;;23.47;48.27;98314.88;4817390;29;20146;-61
2023/04/27 01:29:29;;;;;;;14.05;4.30;;;;;;;23.52;48.11;98307.53;4815915;29;20064;-62
2023/04/27 01:31:59;;;;;;;14.73;5.47;;;;;;;23.58;47.97;98305.59;4809276;29;20058;-64
2023/04/27 01:34:28;;;;;;;14.73;4.45;;;;;;;23.64;48.59;98294.44;4800347;29;20051;-62
2023/04/27 01:36:57;;;;;;;14.30;5.60;;;;;;;23.69;47.69;98293.56;4823206;29;20050;-60
2023/04/27 01:39:27;;;;;;;15.60;5.03;;;;;;;23.78;47.92;98301.84;4816583;29;20480;-65
2023/04/27 01:41:57;;;;;;;9.77;4.55;;;;;;;23.80;48.00;98294.28;4817371;29;20157;-62
2023/04/27 01:44:26;;;;;;;15.35;4.22;;;;;;;23.89;46.80;98297.97;4822574;29;20539;-61
2023/04/27 01:46:55;;;;;;;10.82;4.50;;;;;;;23.92;47.46;98309.00;4810844;29;20498;-62
2023/04/27 01:49:25;;;;;;;10.05;3.30;;;;;;;23.96;47.50;98310.03;4815973;29;20718;-63
2023/04/27 01:51:55;;;;;;;14.40;4.10;;;;;;;24.07;46.41;98316.94;4817050;29;20054;-61
2023/04/27 01:54:25;;;;;;;9.63;3.45;;;;;;;24.14;45.11;98330.91;4816498;29;20548;-64
2023/04/27 01:56:57;;;;;;;8.93;4.07;;;;;;;24.15;45.17;98346.09;4817053;29;20149;-62
2023/04/27 01:59:27;;;;;;;8.70;3.78;;;;;;;24.23;46.22;98360.88;4798353;29;20550;-62
2023/04/27 02:01:56;;;;;;;9.65;3.90;;;;;;;24.33;46.16;98371.59;4802272;29;20058;-64
2023/04/27 02:04:26;;;;;;;10.10;3.78;;;;;;;24.39;46.80;98383.97;4803886;29;20038;-62
2023/04/27 02:06:55;;;;;;;8.65;3.92;;;;;;;24.41;46.80;98389.91;4799897;29;20054;-61
2023/04/27 02:09:25;;;;;;;10.05;4.40;;;;;;;24.46;46.53;98399.88;4785148;29;20107;-62
2023/04/27 02:11:54;;;;;;;7.07;4.03;;;;;;;24.53;45.85;98392.19;4798542;29;20117;-63
2023/04/27 02:14:23;;;;;;;10.05;4.20;;;;;;;24.59;46.10;98393.75;4819576;29;20054;-61
2023/04/27 02:17:24;;;;;;;16.77;4.82;;;;;;;24.72;46.65;98386.78;4816888;29;20058;-62
2023/04/27 02:19:53;;;;;;;13.23;4.90;;;;;;;24.75;45.75;98384.31;4816534;29;20055;-62
2023/04/27 02:22:22;;;;;;;9.02;4.72;;;;;;;24.97;45.07;98389.16;4806418;29;20145;-63
2023/04/27 02:24:51;;;;;;;10.35;5.20;;;;;;;25.31;44.78;98399.78;4816739;29;20463;-64
2023/04/27 02:27:21;;;;;;;9.88;4.55;;;;;;;25.74;44.38;98403.16;4816233;29;20054;-62
2023/04/27 02:29:50;;;;;;;18.55;6.28;;;;;;;26.10;42.96;98414.97;4815155;29;20068;-63
2023/04/27 02:32:21;;;;;;;14.27;5.00;;;;;;;26.32;42.10;98419.75;4815954;29;20078;-62
2023/04/27 02:34:51;;;;;;;10.68;4.72;;;;;;;26.74;41.64;98424.03;4816463;29;20058;-64
2023/04/27 02:37:20;;;;;;;16.38;5.40;;;;;;;26.95;41.96;98438.84;4814661;29;20158;-61
2023/04/27 02:39:49;;;;;;;14.10;5.05;;;;;;;26.54;42.57;98440.75;4815811;29;20123;-61
2023/04/27 02:42:19;;;;;;;13.25;5.65;;;;;;;26.87;41.84;98441.44;4815442;29;20582;-62
2023/04/27 02:45:47;;;;;;;14.82;6.03;;;;;;;26.79;41.04;98445.66;4816876;29;20093;-64
2023/04/27 02:49:16;;;;;;;11.68;6.10;;;;;;;26.76;41.63;98446.28;4814360;29;20043;-62
2023/04/27 02:52:14;;;;;;;16.65;6.28;;;;;;;26.86;41.93;98451.53;4800263;29;20057;-61
2023/04/27 02:57:46;;;;;;;16.08;4.30;;;;;;;26.39;42.60;98452.72;4815284;29;20127;-62
2023/04/27 03:00:16;;;;;;;10.32;4.22;;;;;;;26.28;43.08;98445.88;4815701;29;20059;-61
2023/04/27 03:02:45;;;;;;;8.63;4.15;;;;;;;26.08;42.97;98451.66;4815361;29;20127;-62
2023/04/27 03:05:15;;;;;;;12.82;4.10;;;;;;;25.90;43.09;98464.19;4809628;29;20057;-62
2023/04/27 03:07:45;;;;;;;9.38;3.53;;;;;;;25.80;43.21;98459.72;4813031;29;20054;-61
2023/04/27 03:10:14;;;;;;;20.50;3.75;;;;;;;25.91;41.39;98460.38;4814756;29;20119;-63
2023/04/27 03:12:44;;;;;;;8.77;3.70;;;;;;;25.98;43.80;98477.06;4809338;29;20077;-62
2023/04/27 03:15:13;;;;;;;11.52;3.92;;;;;;;26.05;43.36;98482.91;4814368;29;20042;-61
2023/04/27 03:17:42;;;;;;;11.10;3.50;;;;;;;25.99;43.96;98477.88;4814637;29;20130;-61
2023/04/27 03:20:13;;;;;;;10.18;3.40;;;;;;;25.96;43.66;98481.19;4815079;29;20161;-63
2023/04/27 03:22:44;;;;;;;14.90;3.75;;;;;;;26.08;40.50;98476.88;4813621;29;20061;-62
2023/04/27 03:25:14;;;;;;;15.70;3.72;;;;;;;26.16;42.39;98480.81;4806665;29;20368;-62
2023/04/27 03:27:43;;;;;;;9.93;4.03;;;;;;;26.14;41.17;98477.59;4814164;29;20110;-62
2023/04/27 03:31:13;;;;;;;14.13;3.88;;;;;;;26.02;43.55;98480.00;4811713;29;20150;-65
2023/04/27 03:33:43;;;;;;;7.85;3.38;;;;;;;25.99;44.37;98483.28;4813117;29;20064;-63
2023/04/27 03:36:13;;;;;;;10.55;3.25;;;;;;;26.00;44.51;98488.44;4815080;29;20077;-61
2023/04/27 03:39:19;;;;;;;22.45;4.20;;;;;;;25.97;44.38;98488.22;4813920;29;20141;-61
2023/04/27 03:41:49;;;;;;;12.15;4.40;;;;;;;25.90;45.58;98489.41;4812438;29;20065;-61
2023/04/27 03:44:19;;;;;;;19.48;4.75;;;;;;;25.76;44.69;98499.41;4815078;29;20055;-62
2023/04/27 03:47:14;;;;;;;16.15;3.67;;;;;;;25.55;44.71;98495.41;4815351;29;20439;-64
2023/04/27 03:49:44;;;;;;;14.00;4.07;;;;;;;25.46;44.52;98489.00;4830115;29;20141;-65
2023/04/27 03:52:14;;;;;;;14.27;3.72;;;;;;;25.35;44.62;98487.56;4829745;29;20145;-63
2023/04/27 03:54:43;;;;;;;17.33;3.75;;;;;;;25.36;45.50;98478.31;4815555;29;20503;-64
2023/04/27 03:57:22;;;;;;;12.68;4.18;;;;;;;25.40;42.73;98482.84;4830259;29;20137;-63
2023/04/27 03:59:51;;;;;;;13.82;3.50;;;;;;;25.44;45.44;98486.59;4815443;29;20050;-64
2023/04/27 04:02:21;;;;;;;20.95;4.55;;;;;;;25.43;44.72;98495.84;4808104;29;20042;-62
2023/04/27 04:04:51;;;;;;;17.17;4.68;;;;;;;25.50;44.45;98484.59;4815047;29;20066;-63
2023/04/27 04:07:20;;;;;;;12.60;4.40;;;;;;;25.62;44.07;98487.72;4815659;29;20491;-64
2023/04/27 04:09:49;;;;;;;19.35;3.83;;;;;;;25.64;44.12;98480.06;4814929;29;20601;-63
2023/04/27 04:12:18;;;;;;;14.80;4.18;;;;;;;25.55;46.85;98481.84;4814564;29;20050;-63
2023/04/27 04:14:50;;;;;;;15.95;3.72;;;;;;;25.54;46.77;98488.38;4813925;29;20118;-63
2023/04/27 04:17:20;;;;;;;14.88;3.53;;;;;;;25.58;46.32;98480.47;4815256;29;20061;-64
2023/04/27 04:19:49;;;;;;;10.88;3.55;;;;;;;25.65;46.78;98499.88;4815024;29;20078;-63
2023/04/27 04:22:19;;;;;;;16.55;4.10;;;;;;;25.64;45.13;98512.63;4813639;29;20157;-65
2023/04/27 04:24:50;;;;;;;11.55;3.90;;;;;;;25.75;44.20;98503.25;4814675;29;20063;-62
2023/04/27 04:30:22;;;;;;;15.98;4.10;;;;;;;25.72;46.01;98508.44;4835313;29;20065;-61
2023/04/27 04:32:52;;;;;;;12.43;3.92;;;;;;;25.94;44.87;98517.56;4808369;29;20058;-62
2023/04/27 04:35:21;;;;;;;25.60;4.00;;;;;;;25.87;46.57;98521.75;4809217;29;20062;-63
2023/04/27 04:37:51;;;;;;;19.38;3.92;;;;;;;25.92;40.80;98527.94;4811383;29;20061;-61
2023/04/27 04:40:52;;;;;;;18.65;3.72;;;;;;;25.98;44.39;98527.84;4808137;29;20848;-64
2023/04/27 04:43:48;;;;;;;12.82;3.25;;;;;;;25.95;45.18;98523.81;4823653;29;20095;-63
2023/04/27 04:46:18;;;;;;;31.30;4.60;;;;;;;26.06;42.86;98535.31;4813690;29;20091;-63
2023/04/27 04:48:48;;;;;;;16.20;3.65;;;;;;;25.97;44.74;98516.19;4814632;29;20129;-63
2023/04/27 04:51:20;;;;;;;22.00;4.65;;;;;;;26.16;44.17;98519.63;4814309;29;20050;-61
2023/04/27 04:53:49;;;;;;;19.27;3.75;;;;;;;26.19;45.40;98523.69;4803444;29;20624;-62
2023/04/27 04:56:20;;;;;;;15.15;4.35;;;;;;;26.69;43.52;98532.81;4812495;29;20069;-62
2023/04/27 04:58:49;;;;;;;16.63;4.32;;;;;;;27.14;42.45;98534.63;4810180;29;20133;-64
2023/04/27 05:01:18;;;;;;;15.80;3.72;;;;;;;27.10;42.71;98532.81;4817123;29;20069;-64
2023/04/27 05:03:48;;;;;;;12.98;3.55;;;;;;;26.97;41.60;98539.91;4807661;29;20143;-63
2023/04/27 05:06:17;;;;;;;17.00;4.03;;;;;;;27.00;43.66;98544.72;4808675;29;20053;-64
2023/04/27 05:08:48;;;;;;;15.23;3.67;;;;;;;27.32;41.48;98546.50;4807558;29;20051;-60
2023/04/27 05:11:17;;;;;;;16.95;3.30;;;;;;;27.25;42.41;98541.47;4807247;29;20480;-63
2023/04/27 05:13:46;;;;;;;15.27;4.07;;;;;;;27.22;41.94;98538.53;4804698;29;20066;-61
2023/04/27 05:16:16;;;;;;;21.77;3.90;;;;;;;27.21;41.52;98539.69;4816870;29;20046;-62
2023/04/27 05:18:45;;;;;;;16.05;3.80;;;;;;;27.02;43.70;98545.22;4834879;29;20440;-61
2023/04/27 05:21:16;;;;;;;14.30;3.80;;;;;;;27.31;41.58;98549.53;4835473;29;20533;-62
2023/04/27 05:23:46;;;;;;;33.13;5.32;;;;;;;27.12;43.52;98561.34;4833211;29;20046;-61
2023/04/27 05:26:17;;;;;;;12.82;3.90;;;;;;;27.27;42.66;98560.19;4833526;29;20110;-62
2023/04/27 05:28:48;;;;;;;16.58;3.63;;;;;;;27.18;43.10;98551.16;4814218;29;20046;-60
2023/04/27 05:31:18;;;;;;;28.10;4.53;;;;;;;27.53;40.21;98557.75;4835271;29;20054;-63
2023/04/27 05:33:47;;;;;;;28.42;5.15;;;;;;;27.85;35.31;98556.75;4819234;29;20916;-62
2023/04/27 05:36:16;;;;;;;16.27;3.65;;;;;;;28.26;39.06;98562.84;4832908;29;20060;-62
2023/04/27 05:38:46;;;;;;;30.95;4.30;;;;;;;28.59;38.41;98550.50;4826125;29;20062;-58
2023/04/27 05:41:15;;;;;;;14.68;3.53;;;;;;;28.89;38.96;98553.56;4825920;29;20732;-62
2023/04/27 05:43:46;;;;;;;26.13;4.15;;;;;;;29.05;34.77;98554.72;4798305;29;20077;-62
2023/04/27 05:46:16;;;;;;;21.75;3.83;;;;;;;28.99;37.75;98545.06;4824930;29;20070;-61
2023/04/27 05:48:45;;;;;;;13.30;3.95;;;;;;;29.23;36.06;98552.84;4805770;29;20050;-61
2023/04/27 05:51:14;;;;;;;18.08;3.90;;;;;;;29.07;38.61;98552.50;4820999;29;20446;-61
2023/04/27 05:53:44;;;;;;;16.48;3.72;;;;;;;28.93;40.65;98549.91;4830325;29;20164;-59
2023/04/27 05:56:13;;;;;;;17.02;3.83;;;;;;;28.80;38.39;98547.28;4811136;29;20057;-59
2023/04/27 05:58:42;;;;;;;14.63;3.47;;;;;;;28.90;38.23;98539.59;4829165;29;20437;-58
2023/04/27 06:01:12;;;;;;;16.17;3.75;;;;;;;29.16;39.09;98544.34;4829094;29;20053;-60
2023/04/27 06:03:41;;;;;;;15.52;3.85;;;;;;;29.51;35.62;98534.31;4835075;29;20050;-60
2023/04/27 06:06:11;;;;;;;20.17;4.20;;;;;;;29.73;35.18;98539.59;4832323;29;20355;-59
2023/04/27 06:08:41;;;;;;;9.55;4.03;;;;;;;29.89;34.28;98538.81;4823951;29;20125;-62
2023/04/27 06:11:11;;;;;;;22.08;4.30;;;;;;;29.98;37.37;98536.06;4836622;29;20073;-61
2023/04/27 06:13:40;;;;;;;14.93;5.00;;;;;;;29.64;35.57;98539.63;4806692;29;20059;-60
2023/04/27 06:16:09;;;;;;;31.58;4.90;;;;;;;29.65;37.95;98534.97;4798514;29;20075;-60
2023/04/27 06:18:39;;;;;;;19.27;4.00;;;;;;;29.71;36.74;98544.56;4798552;29;20055;-59
2023/04/27 06:21:08;;;;;;;11.07;4.15;;;;;;;29.44;38.37;98534.75;4797795;29;20119;-62
2023/04/27 06:23:38;;;;;;;14.50;3.65;;;;;;;29.73;34.69;98534.16;4795130;29;20159;-60
2023/04/27 06:26:07;;;;;;;13.30;3.28;;;;;;;29.77;32.39;98525.00;4798002;29;20050;-60
2023/04/27 06:29:40;;;;;;;15.20;3.50;;;;;;;29.62;34.71;98535.56;4797436;29;20834;-60
2023/04/27 06:32:36;;;;;;;14.27;3.58;;;;;;;29.90;34.13;98534.16;4796548;29;20061;-59
2023/04/27 06:35:06;;;;;;;12.57;3.05;;;;;;;29.58;37.95;98526.44;4796784;29;20111;-60
2023/04/27 06:37:35;;;;;;;16.83;3.50;;;;;;;29.67;37.72;98522.56;4797568;29;20074;-59
2023/04/27 06:40:08;;;;;;;13.00;3.83;;;;;;;29.56;32.59;98525.97;4796123;29;20078;-60
2023/04/27 06:42:38;;;;;;;16.17;3.40;;;;;;;29.48;33.63;98532.19;4796425;29;20420;-60
2023/04/27 06:45:08;;;;;;;10.57;3.33;;;;;;;29.44;37.99;98530.13;4797934;29;20241;-60
2023/04/27 06:47:38;;;;;;;16.92;3.30;;;;;;;29.09;37.46;98522.97;4797204;29;20488;-58
2023/04/27 06:50:07;;;;;;;16.90;3.63;;;;;;;29.12;37.97;98511.41;4795608;29;20057;-61
2023/04/27 06:52:38;;;;;;;11.68;3.50;;;;;;;29.27;37.26;98521.88;4797082;29;20531;-59
2023/04/27 06:55:07;;;;;;;10.48;3.40;;;;;;;29.32;37.93;98512.78;4792959;29;20129;-58
2023/04/27 06:57:37;;;;;;;11.57;3.25;;;;;;;29.29;38.34;98500.59;4797648;29;20506;-58
2023/04/27 07:00:07;;;;;;;11.07;3.22;;;;;;;29.29;37.98;98516.97;4797545;29;20214;-58
2023/04/27 07:02:37;;;;;;;16.17;3.83;;;;;;;29.66;32.66;98504.59;4781476;29;20057;-59
2023/04/27 07:05:07;;;;;;;15.40;3.75;;;;;;;29.76;36.72;98508.91;4797493;29;20551;-58
2023/04/27 07:07:36;;;;;;;10.18;3.63;;;;;;;30.06;37.14;98499.75;4796437;29;20059;-60
2023/04/27 07:10:06;;;;;;;13.77;4.28;;;;;;;30.17;37.25;98498.28;4796300;29;20111;-59
2023/04/27 07:12:38;;;;;;;12.80;3.95;;;;;;;30.55;31.50;98492.06;4797183;29;20078;-59
2023/04/27 07:15:08;;;;;;;11.43;3.85;;;;;;;30.15;35.27;98495.06;4820984;29;20149;-60
2023/04/27 07:17:37;;;;;;;18.05;4.45;;;;;;;30.25;30.61;98491.19;4811110;29;20054;-60
2023/04/27 07:20:07;;;;;;;7.93;3.45;;;;;;;30.13;33.61;98491.06;4813618;29;20045;-60
2023/04/27 07:23:08;;;;;;;9.77;3.50;;;;;;;30.25;36.80;98486.53;4825418;29;20100;-59
2023/04/27 07:26:35;;;;;;;13.48;4.00;;;;;;;30.27;32.11;98486.97;4828970;29;20070;-59
2023/04/27 07:30:05;;;;;;;17.80;3.90;;;;;;;29.93;35.39;98476.16;4830561;29;20145;-61
2023/04/27 07:32:39;;;;;;;18.92;4.45;;;;;;;30.05;32.93;98479.00;4824186;29;20490;-60
2023/04/27 07:35:09;;;;;;;11.77;4.03;;;;;;;29.67;33.80;98478.91;4825661;29;20046;-59
2023/04/27 07:37:40;;;;;;;15.07;4.57;;;;;;;29.29;37.82;98470.56;4834358;29;20061;-60
2023/04/27 07:40:15;;;;;;;12.07;3.72;;;;;;;29.30;36.12;98463.97;4824097;29;20589;-60
2023/04/27 07:43:42;;;;;;;12.63;3.75;;;;;;;29.14;38.91;98456.56;4833137;29;20121;-58
2023/04/27 07:47:09;;;;;;;12.25;3.15;;;;;;;28.83;40.36;98446.56;4823896;29;20061;-59
2023/04/27 07:50:37;;;;;;;15.45;3.97;;;;;;;29.23;39.45;98441.78;4818489;29;20446;-60
2023/04/27 07:54:05;;;;;;;16.42;3.80;;;;;;;29.67;33.55;98440.69;4831775;29;20160;-60
2023/04/27 07:57:33;;;;;;;15.52;4.00;;;;;;;29.92;36.58;98436.31;4829399;29;20118;-61
2023/04/27 08:01:00;;;;;;;11.73;3.65;;;;;;;30.01;35.19;98430.81;4818883;29;20549;-60
2023/04/27 08:03:30;;;;;;;25.73;3.75;;;;;;;29.86;37.16;98427.47;4814246;29;20136;-61
2023/04/27 08:05:59;;;;;;;13.70;4.10;;;;;;;29.69;37.90;98426.72;4832823;29;20054;-61
2023/04/27 08:08:29;;;;;;;19.35;4.10;;;;;;;29.92;31.63;98425.38;4834094;29;20795;-61
2023/04/27 08:10:59;;;;;;;22.08;5.65;;;;;;;29.73;35.54;98424.94;4834299;29;20114;-61
2023/04/27 08:13:28;;;;;;;15.93;4.03;;;;;;;29.78;32.63;98411.94;4831034;29;20090;-60
2023/04/27 08:16:29;;;;;;;16.00;4.45;;;;;;;29.84;31.22;98407.06;4831697;29;20454;-61
2023/04/27 08:19:00;;;;;;;15.82;5.15;;;;;;;29.72;35.13;98401.50;4835349;29;20061;-61
2023/04/27 08:22:00;;;;;;;19.33;4.47;;;;;;;29.79;34.69;98404.50;4825007;29;20407;-61
2023/04/27 08:24:31;;;;;;;18.63;5.25;;;;;;;29.96;34.71;98409.16;4835240;29;20049;-61
2023/04/27 08:27:32;;;;;;;8.68;4.05;;;;;;;29.92;33.42;98398.06;4819637;29;20633;-61
2023/04/27 08:30:01;;;;;;;19.33;4.03;;;;;;;29.68;32.96;98404.06;4836008;29;20081;-63
2023/04/27 08:32:31;;;;;;;11.68;3.92;;;;;;;30.03;35.72;98404.81;4831829;29;20053;-60
2023/04/27 08:35:32;;;;;;;16.55;4.90;;;;;;;29.76;34.94;98392.31;4833085;29;20160;-61
2023/04/27 08:38:01;;;;;;;23.02;5.65;;;;;;;29.89;35.99;98382.34;4835583;29;20091;-62
2023/04/27 08:40:31;;;;;;;11.57;4.60;;;;;;;29.32;38.83;98384.53;4832375;29;20169;-60
2023/04/27 08:43:01;;;;;;;13.65;3.65;;;;;;;28.80;40.36;98379.06;4834317;29;20415;-61
2023/04/27 08:45:31;;;;;;;14.23;4.15;;;;;;;28.49;41.70;98384.59;4835978;29;20058;-61
2023/04/27 08:48:01;;;;;;;8.48;3.65;;;;;;;28.40;41.47;98380.22;4829905;29;20091;-60
2023/04/27 08:50:30;;;;;;;9.95;3.83;;;;;;;28.23;41.55;98372.00;4835370;29;20497;-60
2023/04/27 08:53:00;;;;;;;12.20;4.32;;;;;;;28.26;40.83;98374.91;4825594;29;20054;-60
2023/04/27 08:55:29;;;;;;;9.88;3.70;;;;;;;28.24;40.49;98371.66;4824700;29;20063;-61
2023/04/27 08:58:00;;;;;;;13.68;4.43;;;;;;;28.18;41.21;98361.25;4801193;29;20050;-60
2023/04/27 09:00:41;;;;;;;9.77;3.75;;;;;;;28.33;41.12;98358.88;4827121;29;20173;-60
2023/04/27 09:03:24;;;;;;;7.53;3.50;;;;;;;28.28;39.40;98356.28;4817107;29;20055;-60
2023/04/27 09:05:55;;;;;;;10.25;3.60;;;;;;;28.26;40.48;98358.56;4818342;29;20058;-60
2023/04/27 09:09:00;;;;;;;10.30;4.18;;;;;;;28.28;40.78;98355.53;4835421;29;20145;-60
2023/04/27 09:11:39;;;;;;;9.30;3.88;;;;;;;28.26;41.56;98352.28;4827946;29;20049;-59
2023/04/27 09:14:21;;;;;;;10.50;4.30;;;;;;;28.07;42.03;98355.25;4836327;29;20546;-60
2023/04/27 09:16:58;;;;;;;6.53;3.60;;;;;;;28.05;41.41;98352.03;4837271;29;20146;-61
2023/04/27 09:19:29;;;;;;;10.32;3.15;;;;;;;27.90;41.44;98342.38;4837080;29;20046;-59
2023/04/27 09:22:10;;;;;;;6.63;3.58;;;;;;;27.99;40.53;98337.75;4837289;29;20140;-60
2023/04/27 09:24:51;;;;;;;11.38;3.90;;;;;;;27.98;41.53;98333.44;4836313;29;20061;-60
2023/04/27 09:27:22;;;;;;;14.02;3.90;;;;;;;28.02;41.94;98331.69;4826061;29;20125;-62
2023/04/27 09:29:52;;;;;;;12.10;3.92;;;;;;;28.06;41.91;98321.75;4819918;29;20576;-60
2023/04/27 09:32:21;;;;;;;13.48;4.10;;;;;;;28.17;41.96;98327.75;4818660;29;20629;-59
2023/04/27 09:34:50;;;;;;;9.85;3.80;;;;;;;28.04;41.68;98323.19;4833417;29;20062;-60
2023/04/27 09:37:21;;;;;;;8.05;3.65;;;;;;;28.20;40.74;98318.94;4816507;29;20062;-60
2023/04/27 09:40:29;;;;;;;16.60;3.63;;;;;;;28.15;39.85;98313.63;4824934;29;20086;-58
2023/04/27 09:43:03;;;;;;;9.80;3.40;;;;;;;27.87;40.72;98314.97;4815968;29;20053;-56
2023/04/27 09:45:36;;;;;;;;;;;;;;;27.89;41.75;98315.44;4838745;29;20122;-60
2023/04/27 09:48:31;;;;;;;9.77;3.10;;;;;;;27.95;39.96;98309.56;4835671;29;19943;-61
2023/04/27 09:51:01;;;;;;;11.25;3.28;;;;;;;27.93;41.02;98308.25;4836543;29;20057;-59
2023/04/27 09:53:40;;;;;;;11.88;3.90;;;;;;;27.97;41.56;98295.66;4836431;29;20061;-59
2023/04/27 09:56:15;;;;;;;11.48;3.30;;;;;;;28.72;32.98;98298.06;4835928;29;20119;-59
2023/04/27 09:59:10;;;;;;;10.77;3.47;;;;;;;28.20;40.26;98289.00;4845480;29;20054;-59
2023/04/27 10:01:46;;;;;;;8.98;3.72;;;;;;;27.97;40.46;98290.19;4834637;29;20141;-60
2023/04/27 10:04:54;;;;;;;8.18;3.30;;;;;;;28.04;40.40;98282.34;4831504;29;20149;-59
2023/04/27 10:07:27;;;;;;;9.77;3.70;;;;;;;28.02;39.20;98287.31;4809244;29;20061;-59
2023/04/27 10:10:01;;;;;;;12.20;3.25;;;;;;;28.08;40.22;98275.16;4808344;29;20415;-58
2023/04/27 10:12:35;;;;;;;10.75;3.17;;;;;;;28.34;34.10;98276.03;4833020;29;20624;-58
2023/04/27 10:15:15;;;;;;;11.77;3.35;;;;;;;28.68;38.10;98271.75;4828407;29;20085;-60
2023/04/27 10:17:57;;;;;;;7.93;2.78;;;;;;;28.49;38.94;98266.59;4492752;29;9999672;-60
2023/04/27 10:20:32;;;;;;;17.55;4.38;;;;;;;28.78;36.36;98258.59;4829264;29;20050;-62
2023/04/27 10:23:02;;;;;;;18.00;3.70;;;;;;;29.16;30.69;98258.72;4827872;29;20042;-61
2023/04/27 10:25:40;;;;;;;11.18;3.30;;;;;;;29.12;36.20;98256.97;4829704;29;20151;-61
2023/04/27 10:28:16;;;;;;;13.15;3.38;;;;;;;29.44;35.27;98250.94;4805232;29;20061;-54
2023/04/27 10:30:47;;;;;;;10.00;3.10;;;;;;;29.45;33.99;98241.66;4829034;29;20118;-59
2023/04/27 10:33:21;;;;;;;14.25;3.50;;;;;;;29.26;34.88;98242.00;4829909;29;20060;-60
2023/04/27 10:35:59;;;;;;;11.38;3.63;;;;;;;29.41;31.55;98240.69;4828995;29;20054;-61
2023/04/27 10:38:31;;;;;;;13.43;3.90;;;;;;;29.03;35.75;98240.63;4823417;29;20057;-59
2023/04/27 10:41:04;;;;;;;10.80;3.40;;;;;;;28.99;36.75;98228.75;4830642;29;20058;-62
2023/04/27 10:43:34;;;;;;;18.88;3.58;;;;;;;28.79;36.21;98232.16;4827483;29;20050;-59
2023/04/27 10:46:10;;;;;;;16.50;3.30;;;;;;;28.79;37.37;98229.44;4811084;29;20065;-60
2023/04/27 10:49:14;;;;;;;13.23;3.88;;;;;;;28.74;37.60;98222.22;4833836;29;20094;-63
2023/04/27 10:51:46;;;;;;;6.28;3.30;;;;;;;28.52;38.45;98225.09;4834367;29;20050;-62
2023/04/27 10:54:17;;;;;;;13.55;4.88;;;;;;;28.23;39.40;98223.00;4832643;29;20074;-60
2023/04/27 10:56:47;;;;;;;11.77;3.25;;;;;;;27.97;39.97;98217.47;4828624;29;20068;-61
2023/04/27 11:00:21;;;;;;;13.93;3.47;;;;;;;27.89;40.38;98218.25;4832722;29;20473;-63
2023/04/27 11:02:54;;;;;;;10.50;3.60;;;;;;;27.83;40.45;98205.13;4831501;29;20052;-62
2023/04/27 11:05:32;;;;;;;8.75;3.67;;;;;;;27.78;40.81;98202.56;4832888;29;20712;-61
2023/04/27 11:08:09;;;;;;;10.77;4.07;;;;;;;27.68;40.24;98199.00;4837434;29;20057;-62
2023/04/27 11:10:44;;;;;;;6.25;3.28;;;;;;;27.69;40.98;98194.38;4834077;29;20050;-60
2023/04/27 11:13:18;;;;;;;10.07;3.67;;;;;;;27.56;41.68;98182.50;4831016;29;20061;-57
2023/04/27 11:15:48;;;;;;;;;;;;;;;27.64;41.04;98189.06;4806959;29;20099;-64
2023/04/27 11:26:25;;;;;;;12.68;5.25;;;;;;;27.50;41.17;98178.28;4791032;29;20135;-61
2023/04/27 11:29:04;;;;;;;13.85;4.50;;;;;;;27.46;41.82;98166.41;4803085;29;20046;-60
2023/04/27 11:31:48;;;;;;;13.48;4.28;;;;;;;27.49;41.08;98165.00;4819703;29;20065;-60
2023/04/27 11:34:23;;;;;;;16.05;4.43;;;;;;;27.41;41.46;98163.84;4798101;29;20047;-63
2023/04/27 11:37:01;;;;;;;13.35;4.97;;;;;;;27.61;40.19;98168.75;4782283;29;20058;-60
2023/04/27 11:39:45;;;;;;;10.25;4.50;;;;;;;27.61;40.04;98167.94;4797496;29;20054;-58
2023/04/27 11:42:19;;;;;;;10.68;4.70;;;;;;;27.68;38.41;98163.63;4796003;29;20115;-58
2023/04/27 11:44:53;;;;;;;16.15;4.90;;;;;;;28.22;34.92;98160.66;4798765;29;20051;-58
2023/04/27 11:47:26;;;;;;;21.33;4.65;;;;;;;28.44;32.65;98161.31;4789624;29;20051;-59
2023/04/27 11:50:57;;;;;;;13.60;4.78;;;;;;;28.91;33.28;98153.22;4789192;29;20118;-53
2023/04/27 11:53:35;;;;;;;13.30;4.75;;;;;;;29.09;32.29;98152.03;4793854;29;20656;-55
2023/04/27 11:56:06;;;;;;;12.18;5.13;;;;;;;28.99;31.90;98163.28;4798191;29;20062;-59
2023/04/27 11:58:39;;;;;;;14.00;5.47;;;;;;;29.12;34.07;98145.91;4800463;29;20074;-57
2023/04/27 12:01:10;;;;;;;17.03;5.40;;;;;;;29.11;35.07;98154.44;4799065;29;20066;-58
2023/04/27 12:03:40;;;;;;;13.10;4.55;;;;;;;29.02;32.72;98154.47;4803051;29;20500;-58
2023/04/27 12:06:10;;;;;;;13.00;4.43;;;;;;;29.25;32.21;98149.59;4785275;29;20057;-59
2023/04/27 12:09:31;;;;;;;13.57;4.40;;;;;;;28.97;33.72;98151.94;4796865;29;20057;-59
2023/04/27 12:12:32;;;;;;;11.55;4.95;;;;;;;29.05;33.56;98155.75;4795556;29;20431;-60
2023/04/27 12:15:03;;;;;;;16.10;5.10;;;;;;;28.80;36.23;98141.88;4806173;29;20072;-62
2023/04/27 12:17:32;;;;;;;13.73;4.60;;;;;;;29.25;29.63;98142.22;4815225;29;20464;-59
2023/04/27 12:20:28;;;;;;;10.95;4.38;;;;;;;29.30;29.70;98147.47;4830852;29;20152;-58
2023/04/27 12:22:57;;;;;;;12.23;4.43;;;;;;;29.11;33.26;98143.53;4155955;29;10000789;-58